This is the latest recevied weather packets stored in our database for station/object ALANSN-2. If no packets are shown the sender has not sent any weather packets the latest 10 day(s).
| Time | Temp. | Humidity | Pressure | Rain* | Wind** | Luminosity | Snow |
|---|---|---|---|---|---|---|---|
| 1788035217 | 23.33° C | 75% | 1028.3 hPa | 0 mm | - | 84 W/m² | - |
| 1788034920 | 23.33° C | 75% | 1028.3 hPa | 0 mm | - | 95 W/m² | - |
| 1788034619 | 23.33° C | 75% | 1028.3 hPa | 0 mm | - | 95 W/m² | - |
| 1788034320 | 23.33° C | 75% | 1028.3 hPa | 0 mm | - | 88 W/m² | - |
| 1788034018 | 23.33° C | 75% | 1028.6 hPa | 0 mm | - | 92 W/m² | - |
| 1788033720 | 23.33° C | 75% | 1028.6 hPa | 0 mm | - | 92 W/m² | - |
| 1788033421 | 23.33° C | 75% | 1028.4 hPa | 0 mm | - | 102 W/m² | - |
| 1788033120 | 23.33° C | 76% | 1028.6 hPa | 0 mm | - | 94 W/m² | - |
| 1788032820 | 23.33° C | 76% | 1028.6 hPa | 0 mm | - | 94 W/m² | - |
| 1788032519 | 23.33° C | 75% | 1028.8 hPa | 0 mm | - | 104 W/m² | - |
| 1788032220 | 23.89° C | 78% | 1028.7 hPa | 0 mm | - | 122 W/m² | - |
| 1788031920 | 23.89° C | 78% | 1028.7 hPa | 0 mm | - | 122 W/m² | - |
| 1788031620 | 23.89° C | 74% | 1028.8 hPa | 0 mm | - | 106 W/m² | - |
| 1788031320 | 23.89° C | 75% | 1028.7 hPa | 0 mm | - | 127 W/m² | - |
| 1788031020 | 23.89° C | 75% | 1028.7 hPa | 0 mm | - | 127 W/m² | - |
| 1788030720 | 23.33° C | 77% | 1028.8 hPa | 0 mm | - | 124 W/m² | - |
| 1788030420 | 23.33° C | 78% | 1028.9 hPa | 0 mm | - | 145 W/m² | - |
| 1788030120 | 23.33° C | 78% | 1028.9 hPa | 0 mm | - | 145 W/m² | - |
| 1788029820 | 23.33° C | 76% | 1028.7 hPa | 0 mm | - | 159 W/m² | - |
| 1788029520 | 23.33° C | 76% | 1028.8 hPa | 0 mm | - | 157 W/m² | - |
| 1788029220 | 23.33° C | 76% | 1028.8 hPa | 0 mm | - | 157 W/m² | - |
| 1788028920 | 23.33° C | 77% | 1028.4 hPa | 0 mm | - | 196 W/m² | - |
| 1788028620 | 23.33° C | 78% | 1028.8 hPa | 0 mm | - | 133 W/m² | - |
| 1788028319 | 23.33° C | 78% | 1028.8 hPa | 0 mm | - | 133 W/m² | - |
| 1788028020 | 23.33° C | 77% | 1028.7 hPa | 0 mm | - | 149 W/m² | - |
* Rain latest hour (hover to see other rain measurements)
** Current wind speed in m/s (hover to see current wind gust speed)